sensor_id;sensor_type;location;lat;lon;timestamp;P1;durP1;ratioP1;P2;durP2;ratioP2
20207;SDS011;10263;48.716;8.760;2022-07-06T00:01:39;1.77;;;1.40;;
20207;SDS011;10263;48.716;8.760;2022-07-06T00:04:06;2.13;;;1.60;;
20207;SDS011;10263;48.716;8.760;2022-07-06T00:06:33;1.70;;;1.55;;
20207;SDS011;10263;48.716;8.760;2022-07-06T00:09:00;4.20;;;1.60;;
20207;SDS011;10263;48.716;8.760;2022-07-06T00:11:28;2.88;;;1.52;;
20207;SDS011;10263;48.716;8.760;2022-07-06T00:13:55;2.67;;;1.85;;
20207;SDS011;10263;48.716;8.760;2022-07-06T00:16:23;3.00;;;1.97;;
20207;SDS011;10263;48.716;8.760;2022-07-06T00:18:50;3.42;;;1.60;;
20207;SDS011;10263;48.716;8.760;2022-07-06T00:21:17;1.92;;;1.40;;
20207;SDS011;10263;48.716;8.760;2022-07-06T00:23:44;2.95;;;1.80;;
20207;SDS011;10263;48.716;8.760;2022-07-06T00:26:11;3.05;;;1.80;;
20207;SDS011;10263;48.716;8.760;2022-07-06T00:28:38;1.77;;;1.52;;
20207;SDS011;10263;48.716;8.760;2022-07-06T00:31:04;3.45;;;1.90;;
20207;SDS011;10263;48.716;8.760;2022-07-06T00:33:33;2.28;;;2.08;;
20207;SDS011;10263;48.716;8.760;2022-07-06T00:35:59;1.80;;;1.70;;
20207;SDS011;10263;48.716;8.760;2022-07-06T00:38:26;4.72;;;2.00;;
20207;SDS011;10263;48.716;8.760;2022-07-06T00:40:53;2.08;;;1.60;;
20207;SDS011;10263;48.716;8.760;2022-07-06T00:43:20;3.03;;;2.05;;
20207;SDS011;10263;48.716;8.760;2022-07-06T00:45:46;2.50;;;2.00;;
20207;SDS011;10263;48.716;8.760;2022-07-06T00:48:13;1.92;;;1.73;;
20207;SDS011;10263;48.716;8.760;2022-07-06T00:50:42;1.90;;;1.42;;
20207;SDS011;10263;48.716;8.760;2022-07-06T00:53:09;3.50;;;1.48;;
20207;SDS011;10263;48.716;8.760;2022-07-06T00:55:36;3.78;;;1.70;;
20207;SDS011;10263;48.716;8.760;2022-07-06T00:58:05;2.13;;;1.90;;
20207;SDS011;10263;48.716;8.760;2022-07-06T01:00:33;3.30;;;1.80;;
20207;SDS011;10263;48.716;8.760;2022-07-06T01:03:00;4.03;;;1.75;;
20207;SDS011;10263;48.716;8.760;2022-07-06T01:05:28;1.83;;;1.73;;
20207;SDS011;10263;48.716;8.760;2022-07-06T01:07:56;1.80;;;1.63;;
20207;SDS011;10263;48.716;8.760;2022-07-06T01:10:23;6.45;;;1.65;;
20207;SDS011;10263;48.716;8.760;2022-07-06T01:12:51;1.85;;;1.73;;
20207;SDS011;10263;48.716;8.760;2022-07-06T01:15:18;3.00;;;1.80;;
20207;SDS011;10263;48.716;8.760;2022-07-06T01:17:46;2.05;;;1.73;;
20207;SDS011;10263;48.716;8.760;2022-07-06T01:20:16;2.78;;;1.63;;
20207;SDS011;10263;48.716;8.760;2022-07-06T01:22:44;1.50;;;1.35;;
20207;SDS011;10263;48.716;8.760;2022-07-06T01:25:12;1.60;;;1.50;;
20207;SDS011;10263;48.716;8.760;2022-07-06T01:27:39;1.60;;;1.50;;
20207;SDS011;10263;48.716;8.760;2022-07-06T01:30:08;2.72;;;1.63;;
20207;SDS011;10263;48.716;8.760;2022-07-06T01:32:36;2.97;;;1.75;;
20207;SDS011;10263;48.716;8.760;2022-07-06T01:35:05;5.03;;;2.05;;
20207;SDS011;10263;48.716;8.760;2022-07-06T01:37:35;5.07;;;1.55;;
20207;SDS011;10263;48.716;8.760;2022-07-06T01:40:04;2.00;;;1.80;;
20207;SDS011;10263;48.716;8.760;2022-07-06T01:42:32;2.38;;;1.50;;
20207;SDS011;10263;48.716;8.760;2022-07-06T01:45:00;5.32;;;2.22;;
20207;SDS011;10263;48.716;8.760;2022-07-06T01:47:27;1.60;;;1.50;;
20207;SDS011;10263;48.716;8.760;2022-07-06T01:49:53;2.17;;;1.90;;
20207;SDS011;10263;48.716;8.760;2022-07-06T01:52:24;3.88;;;1.98;;
20207;SDS011;10263;48.716;8.760;2022-07-06T01:54:52;2.15;;;1.50;;
20207;SDS011;10263;48.716;8.760;2022-07-06T01:57:19;4.20;;;1.70;;
20207;SDS011;10263;48.716;8.760;2022-07-06T01:59:47;3.08;;;1.77;;
20207;SDS011;10263;48.716;8.760;2022-07-06T02:02:14;3.95;;;1.65;;
20207;SDS011;10263;48.716;8.760;2022-07-06T02:04:43;2.10;;;1.80;;
20207;SDS011;10263;48.716;8.760;2022-07-06T02:07:10;1.77;;;1.55;;
20207;SDS011;10263;48.716;8.760;2022-07-06T02:09:37;2.08;;;1.80;;
20207;SDS011;10263;48.716;8.760;2022-07-06T02:12:06;3.28;;;1.83;;
20207;SDS011;10263;48.716;8.760;2022-07-06T02:14:34;4.10;;;1.60;;
20207;SDS011;10263;48.716;8.760;2022-07-06T02:17:01;3.17;;;2.00;;
20207;SDS011;10263;48.716;8.760;2022-07-06T02:19:28;2.00;;;1.80;;
20207;SDS011;10263;48.716;8.760;2022-07-06T02:21:55;2.08;;;1.80;;
20207;SDS011;10263;48.716;8.760;2022-07-06T02:24:22;2.47;;;1.60;;
20207;SDS011;10263;48.716;8.760;2022-07-06T02:26:49;4.30;;;1.83;;
20207;SDS011;10263;48.716;8.760;2022-07-06T02:29:17;1.77;;;1.67;;
20207;SDS011;10263;48.716;8.760;2022-07-06T02:31:45;3.20;;;2.00;;
20207;SDS011;10263;48.716;8.760;2022-07-06T02:34:12;3.00;;;1.70;;
20207;SDS011;10263;48.716;8.760;2022-07-06T02:36:39;4.13;;;1.80;;
20207;SDS011;10263;48.716;8.760;2022-07-06T02:39:06;3.45;;;2.08;;
20207;SDS011;10263;48.716;8.760;2022-07-06T02:41:32;3.38;;;1.80;;
20207;SDS011;10263;48.716;8.760;2022-07-06T02:43:59;2.10;;;1.80;;
20207;SDS011;10263;48.716;8.760;2022-07-06T02:46:27;3.35;;;1.92;;
20207;SDS011;10263;48.716;8.760;2022-07-06T02:48:54;2.55;;;1.80;;
20207;SDS011;10263;48.716;8.760;2022-07-06T02:51:21;6.07;;;2.40;;
20207;SDS011;10263;48.716;8.760;2022-07-06T02:53:49;2.30;;;2.10;;
20207;SDS011;10263;48.716;8.760;2022-07-06T02:56:17;5.07;;;2.22;;
20207;SDS011;10263;48.716;8.760;2022-07-06T02:58:43;5.25;;;2.28;;
20207;SDS011;10263;48.716;8.760;2022-07-06T03:01:11;4.45;;;2.20;;
20207;SDS011;10263;48.716;8.760;2022-07-06T03:03:39;3.15;;;2.30;;
20207;SDS011;10263;48.716;8.760;2022-07-06T03:06:06;2.97;;;2.20;;
20207;SDS011;10263;48.716;8.760;2022-07-06T03:08:34;2.90;;;2.30;;
20207;SDS011;10263;48.716;8.760;2022-07-06T03:11:01;4.25;;;2.50;;
20207;SDS011;10263;48.716;8.760;2022-07-06T03:13:28;2.83;;;2.22;;
20207;SDS011;10263;48.716;8.760;2022-07-06T03:15:55;2.05;;;1.95;;
20207;SDS011;10263;48.716;8.760;2022-07-06T03:18:23;2.20;;;2.00;;
20207;SDS011;10263;48.716;8.760;2022-07-06T03:20:51;2.70;;;2.47;;
20207;SDS011;10263;48.716;8.760;2022-07-06T03:23:18;4.72;;;2.60;;
20207;SDS011;10263;48.716;8.760;2022-07-06T03:25:45;2.42;;;2.22;;
20207;SDS011;10263;48.716;8.760;2022-07-06T03:28:12;2.85;;;2.58;;
20207;SDS011;10263;48.716;8.760;2022-07-06T03:30:39;2.45;;;2.25;;
20207;SDS011;10263;48.716;8.760;2022-07-06T03:33:06;2.97;;;2.20;;
20207;SDS011;10263;48.716;8.760;2022-07-06T03:35:34;3.92;;;2.60;;
20207;SDS011;10263;48.716;8.760;2022-07-06T03:38:03;2.72;;;2.47;;
20207;SDS011;10263;48.716;8.760;2022-07-06T03:40:31;6.88;;;2.63;;
20207;SDS011;10263;48.716;8.760;2022-07-06T03:42:59;2.85;;;2.15;;
20207;SDS011;10263;48.716;8.760;2022-07-06T03:45:29;3.53;;;2.78;;
20207;SDS011;10263;48.716;8.760;2022-07-06T03:47:57;2.88;;;2.40;;
20207;SDS011;10263;48.716;8.760;2022-07-06T03:50:24;3.65;;;2.50;;
20207;SDS011;10263;48.716;8.760;2022-07-06T03:52:52;3.80;;;2.55;;
20207;SDS011;10263;48.716;8.760;2022-07-06T03:55:20;5.10;;;2.70;;
20207;SDS011;10263;48.716;8.760;2022-07-06T03:57:52;4.18;;;2.58;;
20207;SDS011;10263;48.716;8.760;2022-07-06T04:00:22;2.88;;;2.63;;
20207;SDS011;10263;48.716;8.760;2022-07-06T04:02:56;4.28;;;2.63;;
20207;SDS011;10263;48.716;8.760;2022-07-06T04:05:27;2.58;;;2.38;;
20207;SDS011;10263;48.716;8.760;2022-07-06T04:07:54;3.70;;;2.80;;
20207;SDS011;10263;48.716;8.760;2022-07-06T04:10:27;3.15;;;2.47;;
20207;SDS011;10263;48.716;8.760;2022-07-06T04:12:56;3.50;;;2.60;;
20207;SDS011;10263;48.716;8.760;2022-07-06T04:15:23;3.47;;;2.67;;
20207;SDS011;10263;48.716;8.760;2022-07-06T04:17:50;4.18;;;2.85;;
20207;SDS011;10263;48.716;8.760;2022-07-06T04:20:31;4.85;;;2.72;;
20207;SDS011;10263;48.716;8.760;2022-07-06T04:22:58;2.80;;;2.60;;
20207;SDS011;10263;48.716;8.760;2022-07-06T04:25:25;4.70;;;2.90;;
20207;SDS011;10263;48.716;8.760;2022-07-06T04:27:57;4.72;;;3.20;;
20207;SDS011;10263;48.716;8.760;2022-07-06T04:30:25;3.72;;;3.30;;
20207;SDS011;10263;48.716;8.760;2022-07-06T04:32:53;3.75;;;3.13;;
20207;SDS011;10263;48.716;8.760;2022-07-06T04:35:21;4.65;;;2.75;;
20207;SDS011;10263;48.716;8.760;2022-07-06T04:37:50;3.95;;;3.60;;
20207;SDS011;10263;48.716;8.760;2022-07-06T04:40:19;4.25;;;3.35;;
20207;SDS011;10263;48.716;8.760;2022-07-06T04:42:50;4.47;;;3.20;;
20207;SDS011;10263;48.716;8.760;2022-07-06T04:45:19;3.88;;;3.40;;
20207;SDS011;10263;48.716;8.760;2022-07-06T04:47:46;3.25;;;2.85;;
20207;SDS011;10263;48.716;8.760;2022-07-06T04:50:13;3.78;;;3.38;;
20207;SDS011;10263;48.716;8.760;2022-07-06T04:52:41;6.63;;;3.65;;
20207;SDS011;10263;48.716;8.760;2022-07-06T04:55:09;5.60;;;3.30;;
20207;SDS011;10263;48.716;8.760;2022-07-06T04:57:36;3.53;;;2.70;;
20207;SDS011;10263;48.716;8.760;2022-07-06T05:00:05;4.93;;;3.08;;
20207;SDS011;10263;48.716;8.760;2022-07-06T05:02:34;4.22;;;3.13;;
20207;SDS011;10263;48.716;8.760;2022-07-06T05:05:00;5.57;;;3.50;;
20207;SDS011;10263;48.716;8.760;2022-07-06T05:07:27;5.05;;;3.28;;
20207;SDS011;10263;48.716;8.760;2022-07-06T05:09:56;3.78;;;2.92;;
20207;SDS011;10263;48.716;8.760;2022-07-06T05:12:23;4.75;;;3.05;;
20207;SDS011;10263;48.716;8.760;2022-07-06T05:14:50;4.03;;;3.63;;
20207;SDS011;10263;48.716;8.760;2022-07-06T05:17:20;4.30;;;3.25;;
20207;SDS011;10263;48.716;8.760;2022-07-06T05:19:47;4.28;;;3.10;;
20207;SDS011;10263;48.716;8.760;2022-07-06T05:22:14;2.97;;;2.67;;
20207;SDS011;10263;48.716;8.760;2022-07-06T05:24:41;4.57;;;3.38;;
20207;SDS011;10263;48.716;8.760;2022-07-06T05:27:08;4.55;;;2.90;;
20207;SDS011;10263;48.716;8.760;2022-07-06T05:29:36;3.72;;;2.70;;
20207;SDS011;10263;48.716;8.760;2022-07-06T05:32:03;4.53;;;2.80;;
20207;SDS011;10263;48.716;8.760;2022-07-06T05:34:31;2.78;;;2.58;;
20207;SDS011;10263;48.716;8.760;2022-07-06T05:36:58;3.20;;;2.88;;
20207;SDS011;10263;48.716;8.760;2022-07-06T05:39:26;5.75;;;2.78;;
20207;SDS011;10263;48.716;8.760;2022-07-06T05:41:53;6.05;;;2.72;;
20207;SDS011;10263;48.716;8.760;2022-07-06T05:44:20;3.60;;;2.97;;
20207;SDS011;10263;48.716;8.760;2022-07-06T05:46:47;6.13;;;2.75;;
20207;SDS011;10263;48.716;8.760;2022-07-06T05:49:14;4.40;;;2.83;;
20207;SDS011;10263;48.716;8.760;2022-07-06T05:52:00;3.78;;;2.60;;
20207;SDS011;10263;48.716;8.760;2022-07-06T05:54:27;3.00;;;2.65;;
20207;SDS011;10263;48.716;8.760;2022-07-06T05:56:54;4.90;;;2.78;;
20207;SDS011;10263;48.716;8.760;2022-07-06T05:59:21;3.25;;;2.50;;
20207;SDS011;10263;48.716;8.760;2022-07-06T06:01:48;4.40;;;2.47;;
20207;SDS011;10263;48.716;8.760;2022-07-06T06:04:19;2.53;;;2.20;;
20207;SDS011;10263;48.716;8.760;2022-07-06T06:06:46;4.70;;;2.90;;
20207;SDS011;10263;48.716;8.760;2022-07-06T06:09:16;6.18;;;2.45;;
20207;SDS011;10263;48.716;8.760;2022-07-06T06:11:42;5.80;;;2.63;;
20207;SDS011;10263;48.716;8.760;2022-07-06T06:14:09;5.80;;;2.67;;
20207;SDS011;10263;48.716;8.760;2022-07-06T06:16:36;4.15;;;2.70;;
20207;SDS011;10263;48.716;8.760;2022-07-06T06:19:03;4.15;;;2.30;;
20207;SDS011;10263;48.716;8.760;2022-07-06T06:21:29;4.53;;;2.40;;
20207;SDS011;10263;48.716;8.760;2022-07-06T06:23:56;4.43;;;2.15;;
20207;SDS011;10263;48.716;8.760;2022-07-06T06:26:24;3.53;;;2.22;;
20207;SDS011;10263;48.716;8.760;2022-07-06T06:28:51;3.20;;;2.17;;
20207;SDS011;10263;48.716;8.760;2022-07-06T06:31:18;4.28;;;1.90;;
20207;SDS011;10263;48.716;8.760;2022-07-06T06:33:45;6.07;;;2.13;;
20207;SDS011;10263;48.716;8.760;2022-07-06T06:36:11;4.15;;;2.22;;
20207;SDS011;10263;48.716;8.760;2022-07-06T06:38:38;5.43;;;2.78;;
20207;SDS011;10263;48.716;8.760;2022-07-06T06:41:05;3.40;;;2.00;;
20207;SDS011;10263;48.716;8.760;2022-07-06T06:43:34;3.75;;;1.92;;
20207;SDS011;10263;48.716;8.760;2022-07-06T06:46:07;2.08;;;1.77;;
20207;SDS011;10263;48.716;8.760;2022-07-06T06:48:34;4.22;;;2.28;;
20207;SDS011;10263;48.716;8.760;2022-07-06T06:51:00;3.72;;;2.17;;
20207;SDS011;10263;48.716;8.760;2022-07-06T06:53:27;3.20;;;2.00;;
20207;SDS011;10263;48.716;8.760;2022-07-06T06:55:54;3.00;;;2.13;;
20207;SDS011;10263;48.716;8.760;2022-07-06T06:58:20;3.25;;;2.08;;
20207;SDS011;10263;48.716;8.760;2022-07-06T07:00:48;3.92;;;2.00;;
20207;SDS011;10263;48.716;8.760;2022-07-06T07:03:16;2.35;;;1.90;;
20207;SDS011;10263;48.716;8.760;2022-07-06T07:05:42;5.10;;;2.17;;
20207;SDS011;10263;48.716;8.760;2022-07-06T07:08:09;5.00;;;1.80;;
20207;SDS011;10263;48.716;8.760;2022-07-06T07:10:36;2.88;;;1.92;;
20207;SDS011;10263;48.716;8.760;2022-07-06T07:13:02;2.67;;;2.03;;
20207;SDS011;10263;48.716;8.760;2022-07-06T07:15:29;3.33;;;2.15;;
20207;SDS011;10263;48.716;8.760;2022-07-06T07:17:57;5.75;;;2.00;;
20207;SDS011;10263;48.716;8.760;2022-07-06T07:20:24;2.88;;;1.88;;
20207;SDS011;10263;48.716;8.760;2022-07-06T07:22:51;3.20;;;1.63;;
20207;SDS011;10263;48.716;8.760;2022-07-06T07:25:18;6.18;;;1.90;;
20207;SDS011;10263;48.716;8.760;2022-07-06T07:27:44;2.28;;;1.98;;
20207;SDS011;10263;48.716;8.760;2022-07-06T07:30:11;2.05;;;1.65;;
20207;SDS011;10263;48.716;8.760;2022-07-06T07:32:38;4.75;;;2.08;;
20207;SDS011;10263;48.716;8.760;2022-07-06T07:35:07;3.97;;;2.20;;
20207;SDS011;10263;48.716;8.760;2022-07-06T07:37:34;3.40;;;1.95;;
20207;SDS011;10263;48.716;8.760;2022-07-06T07:40:01;4.28;;;1.80;;
20207;SDS011;10263;48.716;8.760;2022-07-06T07:42:29;2.08;;;1.75;;
20207;SDS011;10263;48.716;8.760;2022-07-06T07:44:56;4.15;;;1.70;;
20207;SDS011;10263;48.716;8.760;2022-07-06T07:47:22;2.95;;;1.70;;
20207;SDS011;10263;48.716;8.760;2022-07-06T07:49:49;3.08;;;1.88;;
20207;SDS011;10263;48.716;8.760;2022-07-06T07:52:17;4.70;;;1.90;;
20207;SDS011;10263;48.716;8.760;2022-07-06T07:54:44;3.05;;;1.52;;
20207;SDS011;10263;48.716;8.760;2022-07-06T07:57:11;4.63;;;1.50;;
20207;SDS011;10263;48.716;8.760;2022-07-06T07:59:37;3.42;;;1.75;;
20207;SDS011;10263;48.716;8.760;2022-07-06T08:02:04;3.35;;;1.83;;
20207;SDS011;10263;48.716;8.760;2022-07-06T08:04:32;4.00;;;1.88;;
20207;SDS011;10263;48.716;8.760;2022-07-06T08:06:59;2.53;;;1.73;;
20207;SDS011;10263;48.716;8.760;2022-07-06T08:09:27;3.80;;;1.63;;
20207;SDS011;10263;48.716;8.760;2022-07-06T08:11:54;2.25;;;1.27;;
20207;SDS011;10263;48.716;8.760;2022-07-06T08:14:20;3.70;;;1.75;;
20207;SDS011;10263;48.716;8.760;2022-07-06T08:16:47;3.00;;;2.00;;
20207;SDS011;10263;48.716;8.760;2022-07-06T08:19:14;3.80;;;1.83;;
20207;SDS011;10263;48.716;8.760;2022-07-06T08:21:41;2.80;;;1.58;;
20207;SDS011;10263;48.716;8.760;2022-07-06T08:24:08;3.50;;;1.73;;
20207;SDS011;10263;48.716;8.760;2022-07-06T08:26:36;3.35;;;1.75;;
20207;SDS011;10263;48.716;8.760;2022-07-06T08:29:03;3.75;;;1.88;;
20207;SDS011;10263;48.716;8.760;2022-07-06T08:31:30;2.72;;;1.73;;
20207;SDS011;10263;48.716;8.760;2022-07-06T08:33:59;5.82;;;1.83;;
20207;SDS011;10263;48.716;8.760;2022-07-06T08:36:25;2.35;;;1.90;;
20207;SDS011;10263;48.716;8.760;2022-07-06T08:38:52;3.17;;;1.85;;
20207;SDS011;10263;48.716;8.760;2022-07-06T08:41:21;4.03;;;2.20;;
20207;SDS011;10263;48.716;8.760;2022-07-06T08:43:51;2.42;;;1.75;;
20207;SDS011;10263;48.716;8.760;2022-07-06T08:46:18;2.53;;;2.03;;
20207;SDS011;10263;48.716;8.760;2022-07-06T08:48:45;1.73;;;1.63;;
20207;SDS011;10263;48.716;8.760;2022-07-06T08:51:14;2.70;;;1.52;;
20207;SDS011;10263;48.716;8.760;2022-07-06T08:53:41;4.03;;;2.10;;
20207;SDS011;10263;48.716;8.760;2022-07-06T08:56:08;2.58;;;1.50;;
20207;SDS011;10263;48.716;8.760;2022-07-06T08:58:35;5.03;;;2.00;;
20207;SDS011;10263;48.716;8.760;2022-07-06T09:01:07;1.98;;;1.70;;
20207;SDS011;10263;48.716;8.760;2022-07-06T09:03:35;5.07;;;2.10;;
20207;SDS011;10263;48.716;8.760;2022-07-06T09:06:02;3.67;;;1.95;;
20207;SDS011;10263;48.716;8.760;2022-07-06T09:08:32;2.40;;;2.05;;
20207;SDS011;10263;48.716;8.760;2022-07-06T09:11:01;3.55;;;2.08;;
20207;SDS011;10263;48.716;8.760;2022-07-06T09:13:28;4.25;;;2.20;;
20207;SDS011;10263;48.716;8.760;2022-07-06T09:15:55;3.65;;;2.22;;
20207;SDS011;10263;48.716;8.760;2022-07-06T09:18:37;3.03;;;1.83;;
20207;SDS011;10263;48.716;8.760;2022-07-06T09:21:04;4.35;;;1.90;;
20207;SDS011;10263;48.716;8.760;2022-07-06T09:23:31;3.20;;;1.88;;
20207;SDS011;10263;48.716;8.760;2022-07-06T09:26:00;3.63;;;1.90;;
20207;SDS011;10263;48.716;8.760;2022-07-06T09:28:39;2.10;;;1.88;;
20207;SDS011;10263;48.716;8.760;2022-07-06T09:31:07;2.13;;;1.85;;
20207;SDS011;10263;48.716;8.760;2022-07-06T09:33:36;2.40;;;2.10;;
20207;SDS011;10263;48.716;8.760;2022-07-06T09:36:03;5.05;;;1.90;;
20207;SDS011;10263;48.716;8.760;2022-07-06T09:38:31;3.88;;;2.00;;
20207;SDS011;10263;48.716;8.760;2022-07-06T09:40:58;2.97;;;1.60;;
20207;SDS011;10263;48.716;8.760;2022-07-06T09:43:27;3.92;;;2.20;;
20207;SDS011;10263;48.716;8.760;2022-07-06T09:45:55;2.70;;;1.83;;
20207;SDS011;10263;48.716;8.760;2022-07-06T09:48:23;4.43;;;2.40;;
20207;SDS011;10263;48.716;8.760;2022-07-06T09:50:53;6.43;;;2.10;;
20207;SDS011;10263;48.716;8.760;2022-07-06T09:53:22;2.85;;;2.03;;
20207;SDS011;10263;48.716;8.760;2022-07-06T09:55:50;3.25;;;2.03;;
20207;SDS011;10263;48.716;8.760;2022-07-06T09:58:18;2.17;;;1.55;;
20207;SDS011;10263;48.716;8.760;2022-07-06T10:00:46;4.10;;;2.08;;
20207;SDS011;10263;48.716;8.760;2022-07-06T10:03:14;2.78;;;1.50;;
20207;SDS011;10263;48.716;8.760;2022-07-06T10:05:42;2.33;;;1.90;;
20207;SDS011;10263;48.716;8.760;2022-07-06T10:08:12;5.20;;;2.10;;
20207;SDS011;10263;48.716;8.760;2022-07-06T10:10:40;2.40;;;1.55;;
20207;SDS011;10263;48.716;8.760;2022-07-06T10:13:08;3.38;;;2.00;;
20207;SDS011;10263;48.716;8.760;2022-07-06T10:15:36;4.88;;;2.10;;
20207;SDS011;10263;48.716;8.760;2022-07-06T10:18:04;3.65;;;2.17;;
20207;SDS011;10263;48.716;8.760;2022-07-06T10:20:33;5.28;;;2.10;;
20207;SDS011;10263;48.716;8.760;2022-07-06T10:23:01;5.65;;;2.30;;
20207;SDS011;10263;48.716;8.760;2022-07-06T10:25:30;5.53;;;2.25;;
20207;SDS011;10263;48.716;8.760;2022-07-06T10:27:58;4.50;;;2.40;;
20207;SDS011;10263;48.716;8.760;2022-07-06T10:30:26;2.90;;;2.00;;
20207;SDS011;10263;48.716;8.760;2022-07-06T10:32:54;2.40;;;2.20;;
20207;SDS011;10263;48.716;8.760;2022-07-06T10:35:23;3.40;;;2.22;;
20207;SDS011;10263;48.716;8.760;2022-07-06T10:38:02;3.08;;;2.25;;
20207;SDS011;10263;48.716;8.760;2022-07-06T10:40:34;3.28;;;1.95;;
20207;SDS011;10263;48.716;8.760;2022-07-06T10:43:19;3.58;;;1.90;;
20207;SDS011;10263;48.716;8.760;2022-07-06T10:45:50;2.70;;;2.05;;
20207;SDS011;10263;48.716;8.760;2022-07-06T10:48:18;3.40;;;2.40;;
20207;SDS011;10263;48.716;8.760;2022-07-06T10:50:47;4.32;;;2.17;;
20207;SDS011;10263;48.716;8.760;2022-07-06T10:53:16;2.90;;;2.10;;
20207;SDS011;10263;48.716;8.760;2022-07-06T10:55:45;2.92;;;2.10;;
20207;SDS011;10263;48.716;8.760;2022-07-06T10:58:15;3.30;;;1.85;;
20207;SDS011;10263;48.716;8.760;2022-07-06T11:01:01;3.83;;;2.28;;
20207;SDS011;10263;48.716;8.760;2022-07-06T11:03:31;4.50;;;2.10;;
20207;SDS011;10263;48.716;8.760;2022-07-06T11:05:59;5.07;;;2.10;;
20207;SDS011;10263;48.716;8.760;2022-07-06T11:08:47;2.10;;;1.73;;
20207;SDS011;10263;48.716;8.760;2022-07-06T11:11:19;3.17;;;2.33;;
20207;SDS011;10263;48.716;8.760;2022-07-06T11:13:48;4.45;;;1.65;;
20207;SDS011;10263;48.716;8.760;2022-07-06T11:16:18;2.58;;;2.17;;
20207;SDS011;10263;48.716;8.760;2022-07-06T11:18:46;3.78;;;2.30;;
20207;SDS011;10263;48.716;8.760;2022-07-06T11:21:14;2.65;;;1.70;;
20207;SDS011;10263;48.716;8.760;2022-07-06T11:23:45;7.40;;;5.07;;
20207;SDS011;10263;48.716;8.760;2022-07-06T11:26:13;5.15;;;3.38;;
20207;SDS011;10263;48.716;8.760;2022-07-06T11:28:42;5.93;;;2.35;;
20207;SDS011;10263;48.716;8.760;2022-07-06T11:31:12;4.22;;;2.15;;
20207;SDS011;10263;48.716;8.760;2022-07-06T11:33:38;6.28;;;2.38;;
20207;SDS011;10263;48.716;8.760;2022-07-06T11:36:12;3.88;;;1.98;;
20207;SDS011;10263;48.716;8.760;2022-07-06T11:38:40;5.07;;;1.80;;
20207;SDS011;10263;48.716;8.760;2022-07-06T11:41:07;3.40;;;1.98;;
20207;SDS011;10263;48.716;8.760;2022-07-06T11:43:34;2.58;;;1.70;;
20207;SDS011;10263;48.716;8.760;2022-07-06T11:46:04;4.93;;;1.88;;
20207;SDS011;10263;48.716;8.760;2022-07-06T11:48:30;2.45;;;2.03;;
20207;SDS011;10263;48.716;8.760;2022-07-06T11:50:58;2.78;;;2.00;;
20207;SDS011;10263;48.716;8.760;2022-07-06T11:53:26;2.65;;;1.95;;
20207;SDS011;10263;48.716;8.760;2022-07-06T11:55:53;4.30;;;1.77;;
20207;SDS011;10263;48.716;8.760;2022-07-06T11:58:20;2.10;;;1.83;;
20207;SDS011;10263;48.716;8.760;2022-07-06T12:01:03;4.30;;;1.92;;
20207;SDS011;10263;48.716;8.760;2022-07-06T12:03:31;2.13;;;1.80;;
20207;SDS011;10263;48.716;8.760;2022-07-06T12:05:59;4.20;;;2.20;;
20207;SDS011;10263;48.716;8.760;2022-07-06T12:08:26;3.22;;;2.20;;
20207;SDS011;10263;48.716;8.760;2022-07-06T12:10:53;2.97;;;1.80;;
20207;SDS011;10263;48.716;8.760;2022-07-06T12:13:20;3.40;;;2.03;;
20207;SDS011;10263;48.716;8.760;2022-07-06T12:15:47;3.28;;;1.80;;
20207;SDS011;10263;48.716;8.760;2022-07-06T12:18:15;3.28;;;2.00;;
20207;SDS011;10263;48.716;8.760;2022-07-06T12:20:42;3.80;;;1.75;;
20207;SDS011;10263;48.716;8.760;2022-07-06T12:23:09;3.20;;;1.83;;
20207;SDS011;10263;48.716;8.760;2022-07-06T12:25:36;2.88;;;1.70;;
20207;SDS011;10263;48.716;8.760;2022-07-06T12:28:03;3.05;;;2.08;;
20207;SDS011;10263;48.716;8.760;2022-07-06T12:30:30;8.85;;;2.33;;
20207;SDS011;10263;48.716;8.760;2022-07-06T12:33:13;3.30;;;1.80;;
20207;SDS011;10263;48.716;8.760;2022-07-06T12:35:41;6.32;;;2.40;;
20207;SDS011;10263;48.716;8.760;2022-07-06T12:38:08;3.03;;;1.90;;
20207;SDS011;10263;48.716;8.760;2022-07-06T12:40:35;2.17;;;1.80;;
20207;SDS011;10263;48.716;8.760;2022-07-06T12:43:03;4.63;;;2.30;;
20207;SDS011;10263;48.716;8.760;2022-07-06T12:45:31;4.15;;;1.77;;
20207;SDS011;10263;48.716;8.760;2022-07-06T12:47:58;2.35;;;1.80;;
20207;SDS011;10263;48.716;8.760;2022-07-06T12:50:33;4.25;;;1.83;;
20207;SDS011;10263;48.716;8.760;2022-07-06T12:53:02;2.33;;;1.80;;
20207;SDS011;10263;48.716;8.760;2022-07-06T12:55:30;2.28;;;1.92;;
20207;SDS011;10263;48.716;8.760;2022-07-06T12:57:58;1.92;;;1.80;;
20207;SDS011;10263;48.716;8.760;2022-07-06T13:00:25;2.85;;;1.88;;
20207;SDS011;10263;48.716;8.760;2022-07-06T13:02:52;3.00;;;1.90;;
20207;SDS011;10263;48.716;8.760;2022-07-06T13:05:24;7.13;;;1.77;;
20207;SDS011;10263;48.716;8.760;2022-07-06T13:07:53;2.70;;;1.73;;
20207;SDS011;10263;48.716;8.760;2022-07-06T13:10:23;2.78;;;1.70;;
20207;SDS011;10263;48.716;8.760;2022-07-06T13:12:50;3.92;;;2.10;;
20207;SDS011;10263;48.716;8.760;2022-07-06T13:15:18;2.95;;;1.88;;
20207;SDS011;10263;48.716;8.760;2022-07-06T13:17:45;4.35;;;1.90;;
20207;SDS011;10263;48.716;8.760;2022-07-06T13:20:12;3.05;;;2.00;;
20207;SDS011;10263;48.716;8.760;2022-07-06T13:22:41;2.25;;;1.80;;
20207;SDS011;10263;48.716;8.760;2022-07-06T13:25:08;2.20;;;1.70;;
20207;SDS011;10263;48.716;8.760;2022-07-06T13:27:37;3.70;;;1.50;;
20207;SDS011;10263;48.716;8.760;2022-07-06T13:30:04;5.18;;;1.73;;
20207;SDS011;10263;48.716;8.760;2022-07-06T13:32:31;3.63;;;1.45;;
20207;SDS011;10263;48.716;8.760;2022-07-06T13:34:58;2.53;;;1.50;;
20207;SDS011;10263;48.716;8.760;2022-07-06T13:37:25;2.60;;;1.40;;
20207;SDS011;10263;48.716;8.760;2022-07-06T13:39:52;1.73;;;1.50;;
20207;SDS011;10263;48.716;8.760;2022-07-06T13:42:18;2.20;;;1.80;;
20207;SDS011;10263;48.716;8.760;2022-07-06T13:44:46;2.78;;;1.55;;
20207;SDS011;10263;48.716;8.760;2022-07-06T13:47:13;3.90;;;1.77;;
20207;SDS011;10263;48.716;8.760;2022-07-06T13:49:40;1.60;;;1.27;;
20207;SDS011;10263;48.716;8.760;2022-07-06T13:52:07;3.38;;;1.67;;
20207;SDS011;10263;48.716;8.760;2022-07-06T13:54:34;2.85;;;1.60;;
20207;SDS011;10263;48.716;8.760;2022-07-06T13:57:01;2.55;;;2.05;;
20207;SDS011;10263;48.716;8.760;2022-07-06T13:59:29;1.40;;;1.27;;
20207;SDS011;10263;48.716;8.760;2022-07-06T14:01:58;1.65;;;1.27;;
20207;SDS011;10263;48.716;8.760;2022-07-06T14:04:25;2.28;;;1.30;;
20207;SDS011;10263;48.716;8.760;2022-07-06T14:06:52;2.20;;;1.48;;
20207;SDS011;10263;48.716;8.760;2022-07-06T14:09:19;2.50;;;1.20;;
20207;SDS011;10263;48.716;8.760;2022-07-06T14:11:46;1.45;;;1.35;;
20207;SDS011;10263;48.716;8.760;2022-07-06T14:14:12;2.70;;;1.35;;
20207;SDS011;10263;48.716;8.760;2022-07-06T14:16:39;1.60;;;1.25;;
20207;SDS011;10263;48.716;8.760;2022-07-06T14:19:07;2.72;;;1.45;;
20207;SDS011;10263;48.716;8.760;2022-07-06T14:21:35;1.95;;;1.30;;
20207;SDS011;10263;48.716;8.760;2022-07-06T14:24:01;1.42;;;1.30;;
20207;SDS011;10263;48.716;8.760;2022-07-06T14:26:29;1.50;;;1.33;;
20207;SDS011;10263;48.716;8.760;2022-07-06T14:28:55;2.03;;;1.40;;
20207;SDS011;10263;48.716;8.760;2022-07-06T14:31:22;3.25;;;1.52;;
20207;SDS011;10263;48.716;8.760;2022-07-06T14:33:50;2.47;;;1.20;;
20207;SDS011;10263;48.716;8.760;2022-07-06T14:36:18;3.47;;;1.35;;
20207;SDS011;10263;48.716;8.760;2022-07-06T14:38:45;2.15;;;1.42;;
20207;SDS011;10263;48.716;8.760;2022-07-06T14:41:12;2.80;;;1.40;;
20207;SDS011;10263;48.716;8.760;2022-07-06T14:43:39;1.30;;;1.20;;
20207;SDS011;10263;48.716;8.760;2022-07-06T14:46:06;2.75;;;1.30;;
20207;SDS011;10263;48.716;8.760;2022-07-06T14:48:33;1.33;;;1.23;;
20207;SDS011;10263;48.716;8.760;2022-07-06T14:51:00;1.80;;;1.10;;
20207;SDS011;10263;48.716;8.760;2022-07-06T14:53:28;2.33;;;1.13;;